Time;durP1;ratioP1;P1;durP2;ratioP2;P2;SDS_P1;SDS_P2;PMS_P1;PMS_P2;Temp;Humidity;BMP_temperature;BMP_pressure;BME280_temperature;BME280_humidity;BME280_pressure;Samples;Min_cycle;Max_cycle;Signal;HPM_P1;HPM_P2
2021/09/14 19:01:53;;;;;;;9.35;5.60;;;;;;;22.00;49.15;97956.88;5138743;27;20847;-92
2021/09/14 19:04:19;;;;;;;6.25;4.65;;;;;;;21.97;49.56;97960.38;5132412;27;20027;-83
2021/09/14 19:06:46;;;;;;;7.25;4.93;;;;;;;21.99;49.26;97958.03;5127835;28;20031;-85
2021/09/14 19:09:13;;;;;;;9.85;5.22;;;;;;;21.97;50.03;97960.38;5133283;27;20118;-80
2021/09/14 19:11:40;;;;;;;7.70;4.60;;;;;;;21.84;50.76;97964.47;5130630;27;20031;-80
2021/09/14 19:14:05;;;;;;;6.07;5.40;;;;;;;21.82;51.18;97964.88;5127924;27;20030;-82
2021/09/14 19:16:31;;;;;;;11.57;5.70;;;;;;;21.76;51.50;97971.91;5119638;27;20035;-80
2021/09/14 19:18:56;;;;;;;6.45;5.25;;;;;;;21.66;51.96;97972.50;5137929;27;20077;-88
2021/09/14 19:21:21;;;;;;;12.00;6.45;;;;;;;21.58;52.76;97981.09;5139899;28;20041;-85
2021/09/14 19:23:47;;;;;;;15.43;11.43;;;;;;;21.55;52.73;97973.47;5138281;27;20031;-78
2021/09/14 19:26:13;;;;;;;9.38;7.38;;;;;;;21.47;53.22;97974.47;5135750;28;20038;-82
2021/09/14 19:28:39;;;;;;;10.50;5.15;;;;;;;21.45;53.27;97976.84;5132237;27;20020;-85
2021/09/14 19:31:04;;;;;;;20.25;14.30;;;;;;;21.38;53.74;97976.69;5130859;27;20085;-78
2021/09/14 19:33:30;;;;;;;17.38;11.25;;;;;;;21.35;53.62;97972.66;5133360;28;20016;-82
2021/09/14 19:35:55;;;;;;;14.60;6.90;;;;;;;21.34;53.40;97982.97;5131796;27;20019;-83
2021/09/14 19:38:21;;;;;;;13.32;8.82;;;;;;;21.40;53.27;97979.88;5131026;27;20535;-82
2021/09/14 19:40:46;;;;;;;11.52;10.15;;;;;;;21.39;53.58;97986.66;5132932;28;20039;-87
2021/09/14 19:43:12;;;;;;;13.40;6.72;;;;;;;21.26;53.83;97975.66;5128901;28;20077;-82
2021/09/14 19:45:38;;;;;;;11.77;6.80;;;;;;;21.14;54.21;97978.56;5128801;27;20093;-79
2021/09/14 19:48:04;;;;;;;14.05;7.55;;;;;;;21.02;54.74;97973.06;5125861;27;20072;-77
2021/09/14 19:50:31;;;;;;;14.65;8.27;;;;;;;20.86;55.69;97980.69;5139677;27;20031;-82
2021/09/14 19:52:58;;;;;;;12.93;6.50;;;;;;;20.73;55.96;97974.41;5132903;27;20115;-89
2021/09/14 19:55:23;;;;;;;10.27;7.30;;;;;;;20.78;56.03;97976.91;5133212;27;20472;-89
2021/09/14 19:57:50;;;;;;;13.45;7.68;;;;;;;20.67;56.17;97980.63;5150742;27;20042;-85
2021/09/14 20:00:16;;;;;;;45.33;36.80;;;;;;;20.67;56.18;97970.31;5145790;27;20074;-82
2021/09/14 20:02:42;;;;;;;29.00;18.52;;;;;;;20.56;56.70;97976.75;5144453;28;20035;-86
2021/09/14 20:05:11;;;;;;;12.38;8.95;;;;;;;20.49;57.33;97973.78;5141007;27;20069;-85
2021/09/14 20:07:36;;;;;;;14.65;9.18;;;;;;;20.61;57.12;97985.63;5146822;28;20083;-82
2021/09/14 20:10:04;;;;;;;10.85;8.25;;;;;;;20.53;57.32;97985.81;5154791;28;20042;-80
2021/09/14 20:12:30;;;;;;;9.95;6.38;;;;;;;20.41;57.45;97977.56;5135795;28;20034;-87
2021/09/14 20:15:01;;;;;;;19.70;14.20;;;;;;;20.33;58.14;97979.34;5132958;28;20043;-88
2021/09/14 20:17:27;;;;;;;15.73;8.35;;;;;;;20.26;58.11;97988.34;5133603;28;20027;-84
2021/09/14 20:19:52;;;;;;;11.68;7.18;;;;;;;20.20;57.89;97983.38;5135197;28;20020;-89
2021/09/14 20:22:19;;;;;;;11.35;7.43;;;;;;;20.17;58.32;97990.44;5130245;28;20024;-86
2021/09/14 20:24:45;;;;;;;8.25;6.43;;;;;;;20.23;58.73;97991.81;5127613;28;20458;-84
2021/09/14 20:27:11;;;;;;;10.35;6.35;;;;;;;20.22;58.63;97995.75;5129107;28;20065;-89
2021/09/14 20:29:37;;;;;;;7.85;6.55;;;;;;;20.14;58.54;97993.13;5130047;28;20027;-87
2021/09/14 20:32:02;;;;;;;7.13;6.20;;;;;;;19.96;58.67;97987.09;5133045;28;20030;-86
2021/09/14 20:34:28;;;;;;;9.70;6.28;;;;;;;19.80;58.89;97980.69;5133636;28;20011;-84
2021/09/14 20:36:53;;;;;;;7.57;5.50;;;;;;;19.86;58.39;97990.38;5127268;28;20118;-85
2021/09/14 20:39:19;;;;;;;9.27;6.10;;;;;;;19.90;58.12;97990.47;5121405;27;20069;-86
2021/09/14 20:41:44;;;;;;;11.48;6.20;;;;;;;19.92;58.37;97994.53;5117594;27;20023;-84
2021/09/14 20:44:09;;;;;;;12.18;6.22;;;;;;;19.93;59.16;97996.13;5123124;27;20050;-86
2021/09/14 20:46:35;;;;;;;10.05;6.20;;;;;;;19.92;59.10;98007.63;5120359;27;20122;-88
2021/09/14 20:49:02;;;;;;;8.15;6.65;;;;;;;19.91;59.54;98012.34;5119239;28;20030;-83
2021/09/14 20:51:27;;;;;;;7.65;5.90;;;;;;;19.80;59.55;98010.47;5128156;28;20055;-85
2021/09/14 20:53:53;;;;;;;7.10;5.07;;;;;;;19.73;59.65;98013.84;5126310;27;20054;-86
2021/09/14 20:56:18;;;;;;;9.93;6.43;;;;;;;19.75;59.87;98017.06;5123574;28;20114;-88
2021/09/14 20:58:44;;;;;;;12.13;6.10;;;;;;;19.70;60.47;98017.31;5120402;28;20084;-90
2021/09/14 21:01:14;;;;;;;9.80;6.43;;;;;;;19.70;60.33;98026.44;5115201;28;20059;-90
2021/09/14 21:03:40;;;;;;;11.60;5.93;;;;;;;19.61;60.27;98022.19;5124753;28;20036;-82
2021/09/14 21:06:08;;;;;;;9.57;5.93;;;;;;;19.46;60.80;98020.16;5120309;28;20015;-86
2021/09/14 21:08:34;;;;;;;13.38;5.55;;;;;;;19.38;61.46;98018.31;5121289;28;20035;-91
2021/09/14 21:11:01;;;;;;;11.65;6.05;;;;;;;19.32;61.66;98016.94;5129026;28;20022;-86
2021/09/14 21:13:26;;;;;;;10.30;6.55;;;;;;;19.33;61.85;98021.34;5127050;28;20012;-85
2021/09/14 21:15:52;;;;;;;12.77;5.95;;;;;;;19.32;62.15;98019.72;5132465;28;20035;-84
2021/09/14 21:18:19;;;;;;;8.02;5.57;;;;;;;19.15;62.38;98013.28;5132247;28;20031;-88
2021/09/14 21:20:45;;;;;;;7.63;5.53;;;;;;;19.18;62.68;98020.09;5137556;28;20041;-83
2021/09/14 21:23:10;;;;;;;7.38;5.25;;;;;;;19.20;62.91;98015.03;5138425;28;20008;-84
2021/09/14 21:25:36;;;;;;;17.92;6.03;;;;;;;19.32;63.08;98025.28;5140107;28;20015;-82
2021/09/14 21:28:01;;;;;;;8.40;6.65;;;;;;;19.31;63.03;98020.88;5140266;28;20075;-89
2021/09/14 21:30:27;;;;;;;7.30;5.60;;;;;;;19.27;62.58;98024.34;5139430;28;20038;-88
2021/09/14 21:32:52;;;;;;;7.38;6.00;;;;;;;19.21;63.38;98031.28;5138884;28;20037;-85
2021/09/14 21:35:18;;;;;;;12.07;6.45;;;;;;;19.11;63.64;98022.63;5139490;27;20055;-88
2021/09/14 21:37:43;;;;;;;8.85;6.15;;;;;;;19.12;63.70;98029.81;5139264;28;20042;-83
2021/09/14 21:40:10;;;;;;;9.77;5.95;;;;;;;19.05;64.07;98033.16;5139665;28;20043;-85
2021/09/14 21:42:36;;;;;;;8.27;6.82;;;;;;;18.89;64.81;98025.94;5138962;28;20031;-82
2021/09/14 21:45:02;;;;;;;11.38;6.22;;;;;;;18.69;65.80;98020.16;5139301;28;20075;-80
2021/09/14 21:47:27;;;;;;;13.20;6.18;;;;;;;18.83;65.67;98021.75;5139387;28;20015;-85
2021/09/14 21:49:53;;;;;;;12.73;7.40;;;;;;;18.80;65.58;98037.13;5139171;28;20019;-85
2021/09/14 21:52:19;;;;;;;14.48;6.38;;;;;;;18.67;66.36;98039.06;5138846;28;20031;-82
2021/09/14 21:54:44;;;;;;;9.35;6.28;;;;;;;18.68;66.60;98039.88;5139092;28;20083;-83
2021/09/14 21:57:10;;;;;;;8.63;6.18;;;;;;;18.47;67.30;98033.63;5139698;28;20024;-79
2021/09/14 21:59:35;;;;;;;10.55;6.63;;;;;;;18.49;67.56;98032.16;5139597;28;20043;-79
2021/09/14 22:02:01;;;;;;;9.35;6.30;;;;;;;18.55;67.67;98033.53;5139984;28;20059;-87
2021/09/14 22:04:26;;;;;;;10.38;6.78;;;;;;;18.51;67.80;98034.59;5138357;28;20044;-88
2021/09/14 22:06:51;;;;;;;8.77;6.55;;;;;;;18.39;68.67;98034.50;5138785;27;20087;-84
2021/09/14 22:09:17;;;;;;;8.10;6.22;;;;;;;18.27;69.79;98042.81;5139236;28;20015;-83
2021/09/14 22:11:42;;;;;;;9.45;7.18;;;;;;;18.13;70.63;98032.88;5139554;28;20022;-78
2021/09/14 22:14:08;;;;;;;12.00;7.43;;;;;;;18.10;71.12;98039.09;5139335;28;20015;-82
2021/09/14 22:16:34;;;;;;;9.77;6.57;;;;;;;17.96;71.75;98035.81;5139532;28;20007;-81
2021/09/14 22:18:59;;;;;;;11.05;7.93;;;;;;;17.84;72.38;98034.97;5139363;27;20011;-81
2021/09/14 22:21:24;;;;;;;13.38;8.05;;;;;;;17.93;71.89;98035.69;5139172;28;20068;-81
2021/09/14 22:23:51;;;;;;;9.13;7.65;;;;;;;17.98;72.32;98046.56;5138890;28;20075;-82
2021/09/14 22:26:17;;;;;;;10.70;8.52;;;;;;;17.97;71.95;98045.75;5138673;28;20008;-81
2021/09/14 22:28:42;;;;;;;12.63;7.53;;;;;;;18.15;71.26;98043.59;5138797;28;20045;-79
2021/09/14 22:31:08;;;;;;;11.05;7.47;;;;;;;18.09;71.53;98040.25;5139555;28;20037;-85
2021/09/14 22:33:33;;;;;;;8.20;7.40;;;;;;;18.02;71.89;98050.25;5138852;28;20011;-81
2021/09/14 22:36:01;;;;;;;9.52;7.22;;;;;;;17.93;72.22;98036.50;5138264;28;20052;-82
2021/09/14 22:38:27;;;;;;;16.70;7.68;;;;;;;18.04;72.15;98039.66;5138729;28;20035;-81
2021/09/14 22:40:52;;;;;;;11.63;7.95;;;;;;;17.96;72.16;98037.78;5138463;28;20016;-79
2021/09/14 22:43:18;;;;;;;9.68;8.02;;;;;;;17.81;72.73;98038.41;5138564;28;20011;-81
2021/09/14 22:45:43;;;;;;;11.45;7.72;;;;;;;17.69;73.25;98030.06;5139044;28;20039;-82
2021/09/14 22:48:09;;;;;;;14.65;8.30;;;;;;;17.65;73.46;98041.00;5138291;28;20019;-82
2021/09/14 22:50:35;;;;;;;10.05;7.43;;;;;;;17.65;73.40;98030.75;5138443;28;20039;-82
2021/09/14 22:53:01;;;;;;;9.95;7.95;;;;;;;17.59;73.72;98029.34;5138180;28;20020;-80
2021/09/14 22:55:27;;;;;;;9.75;7.93;;;;;;;17.72;73.14;98035.72;5139002;28;20039;-84
2021/09/14 22:57:53;;;;;;;13.13;7.65;;;;;;;17.79;73.04;98040.72;5139017;28;20091;-79
2021/09/14 23:00:18;;;;;;;13.90;8.88;;;;;;;17.79;72.92;98035.19;5138798;28;20043;-81
2021/09/14 23:02:43;;;;;;;9.25;8.23;;;;;;;17.75;73.02;98040.59;5139242;28;20037;-81
2021/09/14 23:05:10;;;;;;;10.40;8.20;;;;;;;17.57;73.66;98033.59;5138430;28;20039;-82
2021/09/14 23:07:35;;;;;;;9.50;7.85;;;;;;;17.43;74.47;98035.78;5138035;28;20012;-80
2021/09/14 23:10:00;;;;;;;13.15;7.70;;;;;;;17.32;75.33;98029.06;5138746;28;20045;-81
2021/09/14 23:12:26;;;;;;;11.18;8.95;;;;;;;17.31;75.35;98028.25;5138682;28;20008;-80
2021/09/14 23:14:51;;;;;;;9.68;8.57;;;;;;;17.31;75.43;98031.00;5138823;28;20012;-80
2021/09/14 23:17:17;;;;;;;12.57;8.63;;;;;;;17.40;74.86;98033.69;5138834;28;20027;-79
2021/09/14 23:19:42;;;;;;;10.40;7.88;;;;;;;17.56;74.12;98031.97;5138623;28;20020;-79
2021/09/14 23:22:07;;;;;;;15.07;8.80;;;;;;;17.49;74.49;98038.00;5138748;28;20072;-84
2021/09/14 23:24:33;;;;;;;10.55;8.65;;;;;;;17.52;74.04;98042.88;5137734;28;20033;-78
2021/09/14 23:26:58;;;;;;;12.45;7.97;;;;;;;17.30;75.15;98039.63;5138684;28;20034;-78
2021/09/14 23:29:24;;;;;;;10.35;7.40;;;;;;;17.39;74.86;98043.94;5138615;28;20024;-80
2021/09/14 23:31:49;;;;;;;13.18;9.43;;;;;;;17.31;76.21;98041.25;5138470;28;20038;-82
2021/09/14 23:34:14;;;;;;;15.07;9.60;;;;;;;17.38;76.42;98030.47;5138089;28;20031;-80
2021/09/14 23:36:40;;;;;;;10.60;9.43;;;;;;;17.52;76.36;98039.28;5138004;28;20047;-79
2021/09/14 23:39:06;;;;;;;11.27;10.07;;;;;;;17.38;77.40;98041.53;5138533;28;20022;-81
2021/09/14 23:41:31;;;;;;;15.15;9.77;;;;;;;17.46;77.43;98043.41;5138446;28;20031;-83
2021/09/14 23:43:56;;;;;;;11.48;9.93;;;;;;;17.40;77.31;98042.00;5138004;28;20032;-80
2021/09/14 23:46:22;;;;;;;14.35;9.35;;;;;;;17.21;78.19;98028.63;5138467;28;20008;-83
2021/09/14 23:48:47;;;;;;;11.63;10.23;;;;;;;17.14;79.59;98036.66;5141533;28;20012;-81
2021/09/14 23:51:13;;;;;;;12.98;9.88;;;;;;;17.19;80.02;98030.13;5142248;28;20011;-83
2021/09/14 23:53:41;;;;;;;15.90;10.63;;;;;;;17.20;79.78;98029.00;5141626;28;20015;-84
2021/09/14 23:56:07;;;;;;;20.80;11.32;;;;;;;17.31;79.32;98031.00;5141573;28;20028;-85
2021/09/14 23:58:32;;;;;;;18.55;11.32;;;;;;;17.30;79.70;98026.63;5141205;28;20050;-86
